Waterloo, IA (50701)

5:17 AM CDT on April 20, 2018 (GMT -0500)
Waterloo West High School - KCRG | | Change Station
Active Advisory: Flood Warning

Elev 801 ft 42.47 °N, 92.35 °W | Updated 11 seconds ago

Clear
Clear
28.9 °F
Feels Like 29 °F
N
0.0
Wind Variable Wind from North
Gusts 0.0 mph

Today
High -- | Low -- °F
--% Chance of Precip.
Yesterday
High -- | Low -- °F
Precip. -- in
Pressure 30.52 in
Visibility 9.0 miles
Clouds Clear
Windchill 29 °F
Dew Point 26 °F
Humidity 87%
Rainfall 0.00 in
Snow Depth Not available.
6:20 AM 7:57 PM
Waxing Crescent, 23% visible
METAR KALO 200954Z AUTO 00000KT 9SM CLR M05/M06 A3049 RMK AO2 SLP334 T10501061 $
Pressure 30.52 in
Visibility 9.0 miles
Clouds Clear
Windchill 29 °F
Dew Point 26 °F
Humidity 87%
Rainfall 0.00 in
Snow Depth Not available.
6:20 AM 7:57 PM
Waxing Crescent, 23% visible
METAR KALO 200954Z AUTO 00000KT 9SM CLR M05/M06 A3049 RMK AO2 SLP334 T10501061 $

Get Your Daily Forecast Email!

Thanks for signing up!

Be on the lookout for a verification email in your inbox.

You'll start receiving severe weather alerts in your inbox..

×

10-Day Weather Forecast

Almanac

Astronomy

Apr. 20, 2018 Rise Set
Actual Time
Civil Twilight
Nautical Twilight
Astronomical Twilight
Moon
Length of Visible Light
Length of Day
Tomorrow will be .
, % of the Moon is Illuminated

Today's Extremes

State Highs State Lows

Community

WunderPhotos

Category 6

Welcome to Category 6. This is the collective home for Weather Underground's featured writeups by Dr. Jeff Masters (right), Bob Henson (left), Chris Burt, and other regular contributors.

Nearby

Air Quality

  Air Quality AQ Index Pollutant
Not available.

Snow Depth

Station Depth Elevation

Earthquake Activity

City Distance Mag. Time & Date
Minimum magnitude displayed is 2.5.

Coastal Water Temperatures

Place Temperature

Stations

Nearby Weather Stations

Station Location Temp. Windchill Dew Point Humidity Wind Precip. Elev Updated Type
                   

Watches & Warnings

Flood Warning
Issued: 3:42 AM CDT Apr. 20, 2018 – National Weather Service

... Flood Warning remains in effect until further notice...

The Flood Warning continues for
the Cedar River at Cedar Falls, or from the West Fork Cedar
River... to the Cedar Falls-Waterloo city limits.
* Until further notice.
* At 2:45 am Friday the stage was 86.5 feet, or 1.5 feet below flood
stage.
* Flood stage is 88.0 feet.
* No flooding is occurring and minor flooding is forecast.
* Forecast... continue falling into Saturday and then rise to flood
stage Monday afternoon. Continue rising to 89.9 feet, or 1.9 feet
above flood stage, Tuesday evening.
* Impact... at 90.0 feet, water covers the north half of Tourist Park.


Lat... Lon 4256 9238 4251 9245 4258 9255 4262 9255
      4262 9241 4256 9238